createdAt,value
2022-12-11T00:02:11.736Z,30.80
2022-12-11T00:04:41.348Z,31.58
2022-12-11T00:07:10.933Z,31.00
2022-12-11T00:09:40.819Z,32.38
2022-12-11T00:12:10.737Z,31.08
2022-12-11T00:14:40.275Z,33.08
2022-12-11T00:17:12.857Z,31.35
2022-12-11T00:19:42.552Z,29.77
2022-12-11T00:22:12.256Z,29.08
2022-12-11T00:24:41.842Z,29.20
2022-12-11T00:27:11.732Z,29.33
2022-12-11T00:29:41.356Z,30.45
2022-12-11T00:32:13.604Z,30.15
2022-12-11T00:34:43.257Z,29.98
2022-12-11T00:37:13.109Z,30.30
2022-12-11T00:39:42.729Z,30.55
2022-12-11T00:42:12.325Z,30.67
2022-12-11T00:44:41.913Z,30.77
2022-12-11T00:47:14.164Z,30.85
2022-12-11T00:49:49.416Z,32.72
2022-12-11T00:52:20.125Z,29.50
2022-12-11T00:54:49.714Z,28.58
2022-12-11T00:57:19.320Z,30.80
2022-12-11T00:59:48.952Z,29.55
2022-12-11T01:02:21.117Z,29.42
2022-12-11T01:04:50.747Z,29.30
2022-12-11T01:07:20.312Z,27.83
2022-12-11T01:10:02.403Z,28.08
2022-12-11T01:12:32.028Z,29.50
2022-12-11T01:15:01.652Z,27.35
2022-12-11T01:17:33.865Z,30.45
2022-12-11T01:20:04.304Z,29.38
2022-12-11T01:22:33.967Z,28.80
2022-12-11T01:25:03.777Z,28.65
2022-12-11T01:27:33.362Z,27.00
2022-12-11T01:30:03.184Z,28.58
2022-12-11T01:32:35.477Z,30.02
2022-12-11T01:35:05.986Z,27.40
2022-12-11T01:37:35.657Z,28.83
2022-12-11T01:40:05.932Z,27.75
2022-12-11T01:42:35.597Z,30.25
2022-12-11T01:45:33.343Z,29.33
2022-12-11T01:48:08.949Z,29.63
2022-12-11T01:50:41.473Z,28.98
2022-12-11T01:53:12.837Z,28.63
2022-12-11T01:55:42.442Z,27.73
2022-12-11T01:58:12.052Z,27.80
2022-12-11T02:00:41.623Z,28.00
2022-12-11T02:03:13.800Z,28.00
2022-12-11T02:05:43.384Z,28.42
2022-12-11T02:08:13.003Z,26.77
2022-12-11T02:10:50.436Z,27.35
2022-12-11T02:13:22.189Z,27.90
2022-12-11T02:15:53.345Z,29.90
2022-12-11T02:18:28.521Z,26.80
2022-12-11T02:21:01.354Z,28.20
2022-12-11T02:23:42.062Z,27.17
2022-12-11T02:26:25.191Z,27.52
2022-12-11T02:28:58.375Z,28.58
2022-12-11T02:31:30.753Z,28.95
2022-12-11T02:34:02.420Z,32.10
2022-12-11T02:36:33.142Z,31.30
2022-12-11T02:39:02.758Z,30.30
2022-12-11T02:41:32.489Z,27.95
2022-12-11T02:44:05.257Z,29.60
2022-12-11T02:46:35.062Z,29.48
2022-12-11T02:49:06.525Z,30.85
2022-12-11T02:51:37.463Z,28.40
2022-12-11T02:54:07.183Z,28.27
2022-12-11T02:56:39.466Z,31.52
2022-12-11T02:59:13.042Z,32.47
2022-12-11T03:01:42.689Z,30.52
2022-12-11T03:04:12.347Z,29.73
2022-12-11T03:06:44.494Z,28.45
2022-12-11T03:09:14.123Z,29.17
2022-12-11T03:11:43.757Z,30.00
2022-12-11T03:14:16.748Z,30.58
2022-12-11T03:16:50.480Z,28.63
2022-12-11T03:19:23.174Z,29.75
2022-12-11T03:21:55.244Z,30.08
2022-12-11T03:24:26.699Z,29.40
2022-12-11T03:27:00.956Z,28.67
2022-12-11T03:29:35.412Z,27.73
2022-12-11T03:32:07.866Z,29.20
2022-12-11T03:34:40.850Z,29.90
2022-12-11T03:37:10.531Z,29.10
2022-12-11T03:39:41.289Z,28.10
2022-12-11T03:42:11.514Z,28.02
2022-12-11T03:44:43.688Z,29.00
2022-12-11T03:47:13.318Z,28.20
2022-12-11T03:49:44.709Z,30.30
2022-12-11T03:52:15.217Z,28.90
2022-12-11T03:54:45.464Z,29.20
2022-12-11T03:57:16.201Z,29.25
2022-12-11T03:59:48.428Z,30.20
2022-12-11T04:02:18.275Z,29.40
2022-12-11T04:04:47.853Z,29.05
2022-12-11T04:07:17.482Z,31.00
2022-12-11T04:09:47.047Z,29.85
2022-12-11T04:12:16.633Z,28.80
2022-12-11T04:15:01.379Z,29.27
2022-12-11T04:17:46.365Z,29.55
2022-12-11T04:20:28.435Z,30.17
2022-12-11T04:23:10.534Z,28.33
2022-12-11T04:25:40.206Z,29.25
2022-12-11T04:28:09.853Z,28.35
2022-12-11T04:30:42.031Z,28.00
2022-12-11T04:33:11.638Z,28.13
2022-12-11T04:35:41.248Z,27.40
2022-12-11T04:38:10.856Z,30.85
2022-12-11T04:40:40.520Z,28.67
2022-12-11T04:43:10.197Z,29.63
2022-12-11T04:45:42.415Z,30.10
2022-12-11T04:48:12.043Z,29.83
2022-12-11T04:50:41.699Z,29.08
2022-12-11T04:53:11.305Z,31.65
2022-12-11T04:55:42.417Z,32.38
2022-12-11T04:58:12.087Z,31.23
2022-12-11T05:00:44.309Z,30.73
2022-12-11T05:03:13.998Z,30.88
2022-12-11T05:05:43.598Z,32.45
2022-12-11T05:08:13.272Z,28.23
2022-12-11T05:10:48.549Z,29.35
2022-12-11T05:13:19.624Z,31.17
2022-12-11T05:15:51.845Z,31.13
2022-12-11T05:18:21.502Z,32.08
2022-12-11T05:20:57.963Z,32.83
2022-12-11T05:23:27.600Z,30.58
2022-12-11T05:25:57.320Z,29.77
2022-12-11T05:28:27.509Z,32.33
2022-12-11T05:31:01.382Z,31.08
2022-12-11T05:33:31.224Z,29.77
2022-12-11T05:36:00.917Z,30.23
2022-12-11T05:38:30.508Z,29.10
2022-12-11T05:41:00.626Z,29.75
2022-12-11T05:43:30.688Z,29.47
2022-12-11T05:46:08.077Z,29.87
2022-12-11T05:48:37.677Z,31.73
2022-12-11T05:51:08.396Z,33.20
2022-12-11T05:53:38.419Z,33.28
2022-12-11T05:56:09.333Z,31.30
2022-12-11T05:58:39.017Z,30.85
2022-12-11T06:01:12.797Z,32.63
2022-12-11T06:03:42.381Z,32.63
2022-12-11T06:06:12.091Z,34.08
2022-12-11T06:08:41.719Z,32.40
2022-12-11T06:11:11.470Z,33.00
2022-12-11T06:13:41.049Z,33.88
2022-12-11T06:16:13.458Z,34.97
2022-12-11T06:18:44.004Z,39.78
2022-12-11T06:21:17.197Z,39.45
2022-12-11T06:23:47.079Z,40.63
2022-12-11T06:26:17.201Z,43.30
2022-12-11T06:28:46.848Z,38.57
2022-12-11T06:31:19.215Z,35.78
2022-12-11T06:33:48.957Z,35.67
2022-12-11T06:36:19.557Z,37.20
2022-12-11T06:38:49.415Z,35.80
2022-12-11T06:41:18.993Z,37.55
2022-12-11T06:43:48.591Z,35.05
2022-12-11T06:46:21.603Z,33.85
2022-12-11T06:48:51.468Z,37.30
2022-12-11T06:51:22.369Z,34.38
2022-12-11T06:53:53.809Z,33.15
2022-12-11T06:56:23.500Z,35.80
2022-12-11T06:58:53.204Z,36.17
2022-12-11T07:01:26.390Z,33.53
2022-12-11T07:03:56.207Z,34.38
2022-12-11T07:06:25.920Z,35.20
2022-12-11T07:08:55.739Z,34.30
2022-12-11T07:11:25.542Z,32.88
2022-12-11T07:13:55.101Z,33.53
2022-12-11T07:16:27.319Z,34.00
2022-12-11T07:18:56.925Z,33.20
2022-12-11T07:21:26.525Z,32.97
2022-12-11T07:23:56.105Z,35.85
2022-12-11T07:26:25.777Z,31.63
2022-12-11T07:28:56.091Z,32.78
2022-12-11T07:31:29.080Z,33.33
2022-12-11T07:33:58.797Z,34.22
2022-12-11T07:36:28.370Z,34.20
2022-12-11T07:38:58.234Z,35.78
2022-12-11T07:41:28.352Z,34.05
2022-12-11T07:43:58.048Z,36.80
2022-12-11T07:46:31.333Z,37.60
2022-12-11T07:49:00.924Z,35.15
2022-12-11T07:51:31.228Z,35.33
2022-12-11T07:54:02.042Z,36.85
2022-12-11T07:56:31.956Z,38.78
2022-12-11T07:59:02.021Z,34.58
2022-12-11T08:01:35.750Z,34.47
2022-12-11T08:04:05.501Z,33.25
2022-12-11T08:06:36.060Z,30.15
2022-12-11T08:09:06.926Z,33.20
2022-12-11T08:11:36.580Z,32.75
2022-12-11T08:14:06.742Z,32.10
2022-12-11T08:16:43.069Z,33.50
2022-12-11T08:19:13.424Z,33.60
2022-12-11T08:21:43.543Z,32.83
2022-12-11T08:24:14.702Z,33.00
2022-12-11T08:26:44.349Z,31.33
2022-12-11T08:29:13.948Z,31.98
2022-12-11T08:31:46.192Z,32.53
2022-12-11T08:34:15.788Z,31.10
2022-12-11T08:36:45.464Z,32.63
2022-12-11T08:39:15.080Z,31.95
2022-12-11T08:41:44.708Z,31.60
2022-12-11T08:44:16.932Z,33.45
2022-12-11T08:46:49.397Z,31.58
2022-12-11T08:49:18.952Z,30.65
2022-12-11T08:51:48.566Z,31.77
2022-12-11T08:54:18.134Z,29.33
2022-12-11T08:56:47.814Z,31.90
2022-12-11T08:59:17.379Z,30.42
2022-12-11T09:01:49.717Z,32.30
2022-12-11T09:04:19.506Z,29.30
2022-12-11T09:06:49.350Z,29.92
2022-12-11T09:09:18.990Z,31.58
2022-12-11T09:11:49.739Z,32.55
2022-12-11T09:14:19.291Z,33.03
2022-12-11T09:16:51.460Z,34.55
2022-12-11T09:19:20.998Z,33.13
2022-12-11T09:21:52.053Z,32.05
2022-12-11T09:26:50.962Z,32.60
2022-12-11T09:29:20.522Z,34.47
2022-12-11T09:31:52.732Z,32.45
2022-12-11T09:34:28.696Z,31.60
2022-12-11T09:36:59.574Z,30.75
2022-12-11T09:39:29.180Z,29.88
2022-12-11T09:42:00.903Z,32.28
2022-12-11T09:44:35.681Z,35.70
2022-12-11T09:47:12.409Z,31.92
2022-12-11T09:49:43.039Z,32.78
2022-12-11T09:52:15.576Z,32.33
2022-12-11T09:54:50.858Z,30.67
2022-12-11T09:57:35.194Z,30.55
2022-12-11T10:00:22.111Z,33.42
2022-12-11T10:03:28.531Z,32.25
2022-12-11T10:06:04.433Z,32.85
2022-12-11T10:08:36.263Z,34.88
2022-12-11T10:13:40.317Z,31.40
2022-12-11T10:16:14.914Z,32.83
2022-12-11T10:18:47.276Z,33.90
2022-12-11T10:21:16.798Z,32.88
2022-12-11T10:23:47.141Z,36.40
2022-12-11T10:26:19.245Z,34.40
2022-12-11T10:28:48.858Z,35.42
2022-12-11T10:31:20.157Z,38.05
2022-12-11T10:33:58.716Z,38.17
2022-12-11T10:36:30.763Z,35.90
2022-12-11T10:39:00.413Z,34.90
2022-12-11T10:41:36.869Z,36.70
2022-12-11T10:44:19.147Z,35.50
2022-12-11T10:46:48.776Z,37.88
2022-12-11T10:49:28.026Z,38.60
2022-12-11T10:51:57.532Z,39.17
2022-12-11T10:54:34.861Z,36.47
2022-12-11T10:57:04.884Z,40.63
2022-12-11T10:59:37.477Z,39.67
2022-12-11T11:02:07.364Z,36.70
2022-12-11T11:04:40.761Z,36.75
2022-12-11T11:07:15.408Z,37.08
2022-12-11T11:09:44.911Z,34.70
2022-12-11T11:12:21.952Z,33.85
2022-12-11T11:15:01.790Z,33.63
2022-12-11T11:17:34.959Z,38.63
2022-12-11T11:20:16.310Z,38.17
2022-12-11T11:22:47.599Z,37.92
2022-12-11T11:25:22.277Z,36.63
2022-12-11T11:27:53.313Z,39.38
2022-12-11T11:32:54.422Z,35.85
2022-12-11T11:35:28.221Z,37.88
2022-12-11T11:38:01.434Z,36.95
2022-12-11T11:40:32.571Z,34.78
2022-12-11T11:43:07.725Z,35.15
2022-12-11T11:45:40.666Z,36.55
2022-12-11T11:48:15.980Z,30.52
2022-12-11T11:50:50.608Z,32.03
2022-12-11T11:53:22.083Z,32.40
2022-12-11T11:55:55.752Z,31.65
2022-12-11T11:58:27.718Z,29.98
2022-12-11T12:00:57.555Z,32.40
2022-12-11T12:03:27.455Z,30.00
2022-12-11T12:06:03.842Z,28.95
2022-12-11T12:08:41.482Z,26.85
2022-12-11T12:11:14.496Z,30.70
2022-12-11T12:13:50.130Z,30.70
2022-12-11T12:16:51.657Z,30.88
2022-12-11T12:19:21.101Z,32.55
2022-12-11T12:21:54.886Z,31.23
2022-12-11T12:24:34.743Z,31.33
2022-12-11T12:27:51.059Z,32.22
2022-12-11T12:30:16.150Z,33.42
2022-12-11T12:32:53.537Z,31.70
2022-12-11T12:35:33.298Z,32.22
2022-12-11T12:38:09.493Z,31.70
2022-12-11T12:40:41.503Z,30.27
2022-12-11T12:43:33.632Z,29.63
2022-12-11T12:46:07.591Z,30.77
2022-12-11T12:48:37.114Z,32.42
2022-12-11T12:51:06.802Z,29.48
2022-12-11T12:53:38.960Z,31.80
2022-12-11T12:56:09.246Z,31.02
2022-12-11T12:58:44.862Z,30.70
2022-12-11T13:01:19.322Z,34.08
2022-12-11T13:03:53.861Z,34.70
2022-12-11T13:06:34.536Z,32.47
2022-12-11T13:09:18.532Z,36.45
2022-12-11T13:11:50.157Z,34.22
2022-12-11T13:14:31.981Z,32.92
2022-12-11T13:17:09.293Z,34.83
2022-12-11T13:19:42.509Z,38.85
2022-12-11T13:22:24.388Z,38.10
2022-12-11T13:25:04.842Z,37.42
2022-12-11T13:27:40.045Z,38.38
2022-12-11T13:30:24.467Z,38.63
2022-12-11T13:33:01.548Z,37.10
2022-12-11T13:35:31.266Z,36.28
2022-12-11T13:38:04.273Z,40.35
2022-12-11T13:40:41.212Z,38.38
2022-12-11T13:43:17.848Z,34.58
2022-12-11T13:45:49.492Z,36.70
2022-12-11T13:48:22.590Z,35.13
2022-12-11T13:50:52.565Z,37.65
2022-12-11T13:53:22.221Z,36.67
2022-12-11T13:56:01.776Z,37.15
2022-12-11T13:58:31.792Z,37.72
2022-12-11T14:01:11.155Z,42.30
2022-12-11T14:03:41.791Z,38.28
2022-12-11T14:06:18.224Z,36.13
2022-12-11T14:08:48.841Z,38.08
2022-12-11T14:11:24.339Z,39.50
2022-12-11T14:13:54.139Z,37.90
2022-12-11T14:16:24.788Z,39.08
2022-12-11T14:18:54.429Z,44.55
2022-12-11T14:21:25.019Z,39.83
2022-12-11T14:23:54.864Z,38.35
2022-12-11T14:26:27.821Z,37.17
2022-12-11T14:28:57.652Z,38.42
2022-12-11T14:31:29.970Z,40.53
2022-12-11T14:34:01.728Z,35.53
2022-12-11T14:36:31.226Z,39.83
2022-12-11T14:39:03.696Z,41.25
2022-12-11T14:41:38.129Z,37.45
2022-12-11T14:44:08.072Z,35.97
2022-12-11T14:46:39.456Z,37.97
2022-12-11T14:49:10.331Z,40.63
2022-12-11T14:51:41.821Z,36.85
2022-12-11T14:54:20.081Z,36.08
2022-12-11T14:56:52.434Z,36.17
2022-12-11T14:59:28.469Z,38.65
2022-12-11T15:02:02.119Z,35.03
2022-12-11T15:04:33.025Z,35.42
2022-12-11T15:07:02.604Z,32.67
2022-12-11T15:09:32.931Z,33.55
2022-12-11T15:12:19.523Z,32.08
2022-12-11T15:14:51.524Z,35.47
2022-12-11T15:17:21.302Z,35.25
2022-12-11T15:19:51.685Z,37.33
2022-12-11T15:22:21.263Z,35.80
2022-12-11T15:24:53.028Z,32.85
2022-12-11T15:27:37.025Z,33.17
2022-12-11T15:30:18.490Z,31.70
2022-12-11T15:32:48.126Z,32.72
2022-12-11T15:35:25.155Z,34.75
2022-12-11T15:37:55.005Z,34.95
2022-12-11T15:40:24.644Z,34.97
2022-12-11T15:42:57.479Z,37.63
2022-12-11T15:45:28.518Z,38.15
2022-12-11T15:50:31.852Z,39.45
2022-12-11T15:53:01.330Z,38.65
2022-12-11T15:55:34.887Z,38.25
2022-12-11T15:58:08.853Z,34.72
2022-12-11T16:00:38.373Z,37.38
2022-12-11T16:03:07.858Z,38.05
2022-12-11T16:05:37.326Z,39.22
2022-12-11T16:08:07.753Z,39.35
2022-12-11T16:10:37.635Z,46.42
2022-12-11T16:13:09.710Z,64.47
2022-12-11T16:15:39.910Z,51.08
2022-12-11T16:18:11.180Z,61.05
2022-12-11T16:20:40.960Z,58.58
2022-12-11T16:23:10.696Z,39.67
2022-12-11T16:25:40.886Z,37.05
2022-12-11T16:28:13.490Z,40.90
2022-12-11T16:30:43.558Z,38.38
2022-12-11T16:33:13.746Z,42.90
2022-12-11T16:35:43.375Z,40.03
2022-12-11T16:38:13.589Z,39.75
2022-12-11T16:40:43.300Z,38.87
2022-12-11T16:43:15.339Z,41.20
2022-12-11T16:45:44.796Z,38.92
2022-12-11T16:48:14.226Z,39.70
2022-12-11T16:50:43.680Z,37.47
2022-12-11T16:53:14.634Z,39.88
2022-12-11T16:55:44.310Z,37.35
2022-12-11T16:58:20.086Z,37.40
2022-12-11T17:00:49.614Z,37.22
2022-12-11T17:03:19.149Z,40.75
2022-12-11T17:05:48.628Z,39.28
2022-12-11T17:08:18.127Z,36.42
2022-12-11T17:10:47.633Z,36.92
2022-12-11T17:13:19.662Z,39.33
2022-12-11T17:15:49.135Z,38.60
2022-12-11T17:18:18.599Z,39.20
2022-12-11T17:20:48.067Z,41.30
2022-12-11T17:23:17.544Z,44.20
2022-12-11T17:25:47.447Z,38.42
2022-12-11T17:28:19.495Z,37.85
2022-12-11T17:30:50.160Z,37.55
2022-12-11T17:33:19.705Z,38.40
2022-12-11T17:35:49.250Z,37.10
2022-12-11T17:38:18.709Z,35.38
2022-12-11T17:40:48.588Z,37.10
2022-12-11T17:43:20.729Z,41.88
2022-12-11T17:45:52.460Z,36.80
2022-12-11T17:48:22.500Z,39.88
2022-12-11T17:50:52.830Z,37.58
2022-12-11T17:53:22.986Z,37.13
2022-12-11T17:55:52.826Z,37.80
2022-12-11T17:58:25.344Z,40.50
2022-12-11T18:00:55.757Z,40.25
2022-12-11T18:03:25.552Z,40.53
2022-12-11T18:05:56.369Z,42.28
2022-12-11T18:08:30.002Z,39.97
2022-12-11T18:10:59.751Z,40.13
2022-12-11T18:13:31.796Z,38.45
2022-12-11T18:16:04.782Z,40.53
2022-12-11T18:18:34.341Z,38.78
2022-12-11T18:21:04.005Z,39.75
2022-12-11T18:23:33.518Z,39.40
2022-12-11T18:26:03.005Z,38.22
2022-12-11T18:28:35.090Z,37.58
2022-12-11T18:31:04.717Z,37.55
2022-12-11T18:33:34.369Z,40.25
2022-12-11T18:36:04.099Z,38.00
2022-12-11T18:38:33.623Z,37.47
2022-12-11T18:41:04.943Z,40.05
2022-12-11T18:43:37.086Z,39.22
2022-12-11T18:46:08.423Z,40.03
2022-12-11T18:48:38.023Z,38.80
2022-12-11T18:51:09.384Z,39.33
2022-12-11T18:53:39.227Z,39.85
2022-12-11T18:56:09.810Z,39.63
2022-12-11T18:58:41.855Z,41.33
2022-12-11T19:01:11.906Z,39.30
2022-12-11T19:03:41.446Z,40.70
2022-12-11T19:06:11.970Z,41.65
2022-12-11T19:08:41.473Z,41.17
2022-12-11T19:11:11.057Z,43.53
2022-12-11T19:13:43.921Z,54.92
2022-12-11T19:16:18.447Z,46.35
2022-12-11T19:18:48.048Z,43.53
2022-12-11T19:21:18.122Z,44.30
2022-12-11T19:23:47.861Z,44.40
2022-12-11T19:26:18.468Z,41.72
2022-12-11T19:28:51.239Z,44.78
2022-12-11T19:31:21.627Z,42.33
2022-12-11T19:33:51.184Z,41.03
2022-12-11T19:36:21.678Z,44.30
2022-12-11T19:38:51.223Z,41.95
2022-12-11T19:41:21.954Z,44.03
2022-12-11T19:43:54.394Z,47.42
2022-12-11T19:46:24.042Z,43.05
2022-12-11T19:48:54.152Z,48.92
2022-12-11T19:51:24.881Z,50.35
2022-12-11T19:53:54.367Z,49.92
2022-12-11T19:56:24.019Z,47.05
2022-12-11T19:58:56.059Z,40.58
2022-12-11T20:01:28.849Z,43.17
2022-12-11T20:03:59.595Z,40.35
2022-12-11T20:06:29.996Z,41.58
2022-12-11T20:08:59.611Z,39.63
2022-12-11T20:11:29.118Z,44.45
2022-12-11T20:14:01.283Z,41.45
2022-12-11T20:17:01.680Z,38.65
2022-12-11T20:19:20.288Z,41.63
2022-12-11T20:21:49.752Z,40.88
2022-12-11T20:24:19.226Z,41.88
2022-12-11T20:26:49.203Z,42.00
2022-12-11T20:29:21.262Z,41.35
2022-12-11T20:31:52.640Z,44.60
2022-12-11T20:34:23.079Z,43.03
2022-12-11T20:36:54.607Z,41.33
2022-12-11T20:39:24.117Z,38.92
2022-12-11T20:41:53.579Z,42.72
2022-12-11T20:44:25.923Z,44.88
2022-12-11T20:46:55.395Z,42.33
2022-12-11T20:49:24.892Z,42.83
2022-12-11T20:51:54.387Z,40.42
2022-12-11T20:54:23.873Z,44.35
2022-12-11T20:56:53.347Z,41.53
2022-12-11T20:59:26.107Z,40.85
2022-12-11T21:01:55.963Z,49.25
2022-12-11T21:04:25.696Z,44.40
2022-12-11T21:06:55.438Z,42.50
2022-12-11T21:09:26.535Z,40.45
2022-12-11T21:14:27.860Z,42.13
2022-12-11T21:16:57.380Z,41.72
2022-12-11T21:19:26.900Z,41.85
2022-12-11T21:21:56.387Z,42.20
2022-12-11T21:24:27.382Z,41.00
2022-12-11T21:29:30.044Z,38.72
2022-12-11T21:31:59.635Z,40.67
2022-12-11T21:34:29.717Z,40.90
2022-12-11T21:36:59.322Z,41.97
2022-12-11T21:39:29.316Z,43.13
2022-12-11T21:41:58.803Z,41.45
2022-12-11T21:47:20.306Z,41.72
2022-12-11T21:49:49.801Z,40.70
2022-12-11T21:52:19.666Z,43.58
2022-12-11T21:54:49.310Z,41.00
2022-12-11T21:57:22.822Z,41.88
2022-12-11T21:59:58.068Z,40.72
2022-12-11T22:02:27.643Z,40.85
2022-12-11T22:04:57.145Z,39.65
2022-12-11T22:07:27.639Z,41.40
2022-12-11T22:09:58.003Z,42.03
2022-12-11T22:12:29.151Z,42.13
2022-12-11T22:15:01.195Z,43.08
2022-12-11T22:17:31.656Z,43.13
2022-12-11T22:20:01.339Z,43.28
2022-12-11T22:22:30.791Z,40.90
2022-12-11T22:25:00.301Z,42.88
2022-12-11T22:27:29.768Z,40.20
2022-12-11T22:30:01.788Z,40.55
2022-12-11T22:32:31.268Z,43.03
2022-12-11T22:35:00.875Z,41.70
2022-12-11T22:37:30.347Z,40.92
2022-12-11T22:39:59.782Z,40.50
2022-12-11T22:42:29.271Z,40.53
2022-12-11T22:45:01.300Z,40.60
2022-12-11T22:47:30.798Z,41.15
2022-12-11T22:50:00.224Z,41.67
2022-12-11T22:52:29.894Z,42.35
2022-12-11T22:54:59.361Z,42.13
2022-12-11T22:57:28.855Z,41.03
2022-12-11T23:00:00.911Z,40.53
2022-12-11T23:02:30.380Z,43.05
2022-12-11T23:04:59.843Z,43.42
2022-12-11T23:07:29.757Z,41.58
2022-12-11T23:09:59.262Z,40.45
2022-12-11T23:12:28.737Z,39.60
2022-12-11T23:15:00.761Z,39.67
2022-12-11T23:17:30.279Z,38.47
2022-12-11T23:20:00.473Z,44.67
2022-12-11T23:22:29.973Z,42.95
2022-12-11T23:24:59.432Z,40.88
2022-12-11T23:27:28.917Z,42.92
2022-12-11T23:30:00.932Z,41.08
2022-12-11T23:32:30.370Z,40.33
2022-12-11T23:34:59.832Z,37.15
2022-12-11T23:37:29.315Z,40.45
2022-12-11T23:39:59.004Z,39.95
2022-12-11T23:42:28.521Z,42.20
2022-12-11T23:44:58.067Z,39.13
2022-12-11T23:47:30.134Z,42.95
2022-12-11T23:49:59.587Z,42.05
2022-12-11T23:52:29.193Z,40.25
2022-12-11T23:54:58.691Z,41.22
2022-12-11T23:57:28.160Z,41.75
2022-12-11T23:59:57.603Z,37.83
